Historique des mesures à Cassis (13260), France
Quotidien Résumé Mars 5, 2020 Unités:  Métrique    US   Métrique/US
Quotidien Hebdomadaire Mensuel Annuel
  Maximum: Minimum: Moyenne:
Température: 33.4 °C 21.4 °C 27.1 °C
Point de rosée: 17.2 °C 8.8 °C 13.3 °C
Humidité: 61% 34% 43%
Vitesse du vent: 13.3km/h 0km/h 3.7km/h
Rafales: 25.9km/h - -
Vent- - SW
Pression: 1013.6 hPa 1010.8 hPa -
Précipitations: 0.0 mm    
Historical Graphs
 
 
Mesures pour : Mars 5, 2020
Heure Temperature Point de rosée Pression Vent Vitesse du vent Rafales Humidité Pluie (par heure)
00:11 24.3 °C 9.9 °C 1013.5 hPa Calm   11.2 km/h 40% 0.0 mm
01:11 23.6 °C 9.2 °C 1013.2 hPa Calm   11.2 km/h 40% 0.0 mm
02:11 23.3 °C 9 °C 1013.3 hPa Calm   11.2 km/h 40% 0.0 mm
03:11 22.4 °C 8.8 °C 1012.9 hPa NNW 11.2 km/h 11.2 km/h 42% 0.0 mm
04:11 22.1 °C 8.9 °C 1012.3 hPa Calm   2.5 km/h 43% 0.0 mm
05:11 22.4 °C 9.2 °C 1012.0 hPa NW 5.4 km/h 11.2 km/h 43% 0.0 mm
06:11 21.4 °C 8.9 °C 1012.3 hPa NW 13.3 km/h 25.9 km/h 45% 0.0 mm
07:11 23.1 °C 10.4 °C 1012.4 hPa NW 5 km/h 15.1 km/h 45% 0.0 mm
08:11 27.1 °C 11.1 °C 1012.4 hPa WNW 10.4 km/h 15.5 km/h 37% 0.0 mm
09:11 25.9 °C 11.7 °C 1012.6 hPa Calm   12.2 km/h 41% 0.0 mm
10:11 27.9 °C 13.1 °C 1013.0 hPa WNW 4 km/h 11.2 km/h 40% 0.0 mm
11:11 31.1 °C 14.2 °C 1013.5 hPa SE 4 km/h 11.2 km/h 36% 0.0 mm
12:11 32.3 °C 14.8 °C 1013.6 hPa SE 2.2 km/h 7.6 km/h 35% 0.0 mm
13:11 32.8 °C 14.8 °C 1013.5 hPa Calm   11.2 km/h 34% 0.0 mm
14:11 33.4 °C 15.3 °C 1013.2 hPa ESE 4.7 km/h 11.2 km/h 34% 0.0 mm
15:11 32.5 °C 15.4 °C 1012.8 hPa SSE 3.6 km/h 11.2 km/h 36% 0.0 mm
16:11 30.9 °C 16.9 °C 1012.5 hPa SE 7.2 km/h 11.2 km/h 43% 0.0 mm
17:11 29.9 °C 16.7 °C 1012.3 hPa ESE 6.5 km/h 9 km/h 45% 0.0 mm
18:11 29.5 °C 16.7 °C 1011.7 hPa Calm   7.6 km/h 46% 0.0 mm
19:11 28.5 °C 16.8 °C 1011.4 hPa Calm   3.6 km/h 49% 0.0 mm
20:11 28.3 °C 17.2 °C 1011.2 hPa Calm   6.5 km/h 51% 0.0 mm
21:11 26.9 °C 16.9 °C 1010.9 hPa Calm   11.2 km/h 54% 0.0 mm
22:11 26 °C 16.5 °C 1010.8 hPa NNW 11.2 km/h 11.2 km/h 56% 0.0 mm
23:11 24.9 °C 16.9 °C 1010.9 hPa Calm     61% 0.0 mm
Observations météo à CASSIS
WU-History script by Weather Underground - 2 mb